Time;durP1;ratioP1;P1;durP2;ratioP2;P2;SDS_P1;SDS_P2;PMS_P1;PMS_P2;Temp;Humidity;BMP_temperature;BMP_pressure;BME280_temperature;BME280_humidity;BME280_pressure;Samples;Min_cycle;Max_cycle;Signal;HPM_P1;HPM_P2
2023/07/08 00:01:25;;;;;;;11.00;8.25;;;;;;;;;;8433174;28;20044;-86
2023/07/08 00:05:28;;;;;;;12.27;8.50;;;;;;;;;;8430648;28;20044;-88
2023/07/08 00:09:31;;;;;;;10.88;7.55;;;;;;;;;;8419978;28;20051;-88
2023/07/08 00:13:35;;;;;;;12.63;7.80;;;;;;;;;;8433800;28;20131;-89
2023/07/08 00:17:38;;;;;;;11.27;7.55;;;;;;;;;;8433665;28;20119;-87
2023/07/08 00:21:41;;;;;;;13.18;7.97;;;;;;;;;;8432747;28;20051;-87
2023/07/08 00:25:44;;;;;;;11.80;8.38;;;;;;;;;;8433965;28;20501;-87
2023/07/08 00:29:48;;;;;;;12.48;8.88;;;;;;;;;;8440783;28;20051;-86
2023/07/08 00:33:51;;;;;;;12.82;8.35;;;;;;;;;;8434219;28;20387;-87
2023/07/08 00:38:01;;;;;;;12.65;8.63;;;;;;;;;;8421719;28;20121;-86
2023/07/08 00:42:16;;;;;;;12.27;8.95;;;;;;;;;;8421835;28;20049;-89
2023/07/08 00:46:43;;;;;;;13.18;8.60;;;;;;;;;;8427897;28;20050;-87
2023/07/08 00:50:46;;;;;;;15.57;8.18;;;;;;;;;;8422066;28;20043;-84
2023/07/08 00:54:51;;;;;;;11.90;8.07;;;;;;;;;;8432028;28;20138;-85
2023/07/08 00:58:58;;;;;;;13.68;8.43;;;;;;;;;;8432082;28;20071;-89
2023/07/08 01:03:03;;;;;;;13.02;8.73;;;;;;;;;;8431540;28;20052;-87
2023/07/08 01:07:07;;;;;;;13.05;9.23;;;;;;;;;;8431959;28;20048;-87
2023/07/08 01:11:10;;;;;;;18.08;9.85;;;;;;;;;;8418494;28;20047;-89
2023/07/08 01:15:14;;;;;;;11.00;8.25;;;;;;;;;;8431732;28;20056;-89
2023/07/08 01:19:32;;;;;;;14.25;8.77;;;;;;;;;;8431651;28;20120;-89
2023/07/08 01:23:38;;;;;;;14.73;9.40;;;;;;;;;;8431756;28;20040;-89
2023/07/08 01:27:44;;;;;;;14.10;8.93;;;;;;;;;;8432934;28;20123;-82
2023/07/08 01:31:48;;;;;;;13.85;9.38;;;;;;;;;;8431705;28;20043;-82
2023/07/08 01:35:52;;;;;;;13.07;9.18;;;;;;;;;;8418834;28;20085;-89
2023/07/08 01:39:56;;;;;;;11.55;8.60;;;;;;;;;;8431004;28;20161;-90
2023/07/08 01:43:59;;;;;;;17.52;8.60;;;;;;;;;;8431875;28;20047;-86
2023/07/08 01:48:06;;;;;;;12.02;8.70;;;;;;;;;;8430795;28;20111;-87
2023/07/08 01:52:09;;;;;;;12.93;9.02;;;;;;;;;;8431563;28;20066;-85
2023/07/08 01:56:15;;;;;;;13.55;8.90;;;;;;;;;;8429936;28;20048;-83
2023/07/08 02:00:18;;;;;;;12.13;8.55;;;;;;;;;;8427896;28;20494;-89
2023/07/08 02:04:21;;;;;;;13.77;9.45;;;;;;;;;;8418343;28;20066;-87
2023/07/08 02:08:24;;;;;;;15.95;9.45;;;;;;;;;;8429918;28;20066;-83
2023/07/08 02:12:28;;;;;;;14.05;9.43;;;;;;;;;;8429715;28;20181;-88
2023/07/08 02:16:31;;;;;;;16.73;9.63;;;;;;;;;;8429123;28;20040;-86
2023/07/08 02:20:34;;;;;;;16.88;9.40;;;;;;;;;;8425186;28;20120;-89
2023/07/08 02:24:37;;;;;;;13.73;8.98;;;;;;;;;;8429849;28;20043;-82
2023/07/08 02:28:41;;;;;;;16.05;8.93;;;;;;;;;;8429529;28;20098;-83
2023/07/08 02:32:56;;;;;;;12.68;8.75;;;;;;;;;;8428960;28;20052;-88
2023/07/08 02:36:59;;;;;;;12.80;8.75;;;;;;;;;;8429367;28;20126;-87
2023/07/08 02:41:02;;;;;;;26.95;16.17;;;;;;;;;;8429391;28;20127;-84
2023/07/08 02:45:08;;;;;;;14.68;9.52;;;;;;;;;;8428357;28;20150;-88
2023/07/08 02:49:11;;;;;;;25.80;14.55;;;;;;;;;;8429255;28;20173;-83
2023/07/08 02:53:14;;;;;;;15.50;10.35;;;;;;;;;;8425979;28;20146;-90
2023/07/08 02:57:16;;;;;;;14.70;8.63;;;;;;;;;;8426224;28;20040;-82
2023/07/08 03:01:21;;;;;;;13.27;8.52;;;;;;;;;;8428753;28;20122;-88
2023/07/08 03:05:23;;;;;;;12.95;8.65;;;;;;;;;;8428181;28;20119;-86
2023/07/08 03:09:27;;;;;;;10.70;8.05;;;;;;;;;;8428203;28;20132;-87
2023/07/08 03:13:30;;;;;;;10.55;7.80;;;;;;;;;;8428691;28;20493;-86
2023/07/08 03:17:35;;;;;;;13.15;7.63;;;;;;;;;;8428064;28;20617;-89
2023/07/08 03:21:37;;;;;;;9.32;7.38;;;;;;;;;;8428742;28;20051;-88
2023/07/08 03:25:40;;;;;;;13.82;8.60;;;;;;;;;;8427649;28;20131;-82
2023/07/08 03:29:43;;;;;;;10.35;7.93;;;;;;;;;;8431980;28;20044;-88
2023/07/08 03:33:47;;;;;;;13.40;8.27;;;;;;;;;;8434522;28;20073;-85
2023/07/08 03:37:50;;;;;;;9.40;6.93;;;;;;;;;;8434409;28;20054;-83
2023/07/08 03:41:54;;;;;;;12.32;6.75;;;;;;;;;;8435021;28;20789;-90
2023/07/08 03:45:57;;;;;;;10.20;7.10;;;;;;;;;;8434126;28;20044;-83
2023/07/08 03:50:01;;;;;;;10.18;7.97;;;;;;;;;;8434738;28;20097;-89
2023/07/08 03:54:05;;;;;;;7.18;5.45;;;;;;;;;;8434154;28;20475;-84
2023/07/08 03:58:08;;;;;;;9.10;5.90;;;;;;;;;;8430681;28;20487;-89
2023/07/08 04:02:12;;;;;;;10.13;5.93;;;;;;;;;;8434066;28;20051;-83
2023/07/08 04:06:16;;;;;;;8.75;5.68;;;;;;;;;;8421085;28;20173;-89
2023/07/08 04:10:19;;;;;;;7.30;5.70;;;;;;;;;;8428538;28;20039;-87
2023/07/08 04:14:21;;;;;;;7.88;5.45;;;;;;;;;;8433195;28;20079;-90
2023/07/08 04:18:24;;;;;;;7.78;4.90;;;;;;;;;;8433476;28;20047;-89
2023/07/08 04:22:28;;;;;;;7.30;4.93;;;;;;;;;;8433249;28;20536;-83
2023/07/08 04:26:35;;;;;;;6.63;4.45;;;;;;;;;;8433156;28;20048;-89
2023/07/08 04:30:40;;;;;;;8.45;4.90;;;;;;;;;;8433130;28;20044;-88
2023/07/08 04:34:43;;;;;;;5.75;4.38;;;;;;;;;;8423270;28;20761;-90
2023/07/08 04:38:48;;;;;;;6.20;4.30;;;;;;;;;;8427860;28;20043;-92
2023/07/08 04:42:51;;;;;;;8.13;4.22;;;;;;;;;;8421414;28;20407;-89
2023/07/08 04:46:57;;;;;;;6.45;4.70;;;;;;;;;;8431899;28;20119;-91
2023/07/08 04:50:59;;;;;;;9.70;3.90;;;;;;;;;;8432234;28;20084;-91
2023/07/08 04:55:04;;;;;;;6.63;3.92;;;;;;;;;;8433043;28;20516;-84
2023/07/08 04:59:09;;;;;;;6.85;3.70;;;;;;;;;;8429147;28;20046;-87
2023/07/08 05:03:12;;;;;;;5.15;3.70;;;;;;;;;;8431105;28;20169;-85
2023/07/08 05:07:15;;;;;;;5.00;3.30;;;;;;;;;;8432236;28;20151;-88
2023/07/08 05:11:19;;;;;;;4.70;3.40;;;;;;;;;;8431741;28;20115;-88
2023/07/08 05:15:22;;;;;;;4.88;3.13;;;;;;;;;;8430744;28;20153;-84
2023/07/08 05:19:25;;;;;;;4.78;3.20;;;;;;;;;;8431760;28;20532;-90
2023/07/08 05:23:28;;;;;;;4.20;3.17;;;;;;;;;;8430123;28;20403;-86
2023/07/08 05:27:35;;;;;;;4.40;2.83;;;;;;;;;;8432598;28;20047;-86
2023/07/08 05:31:37;;;;;;;3.60;2.70;;;;;;;;;;8448760;28;20044;-92
2023/07/08 05:35:40;;;;;;;3.65;3.03;;;;;;;;;;8427655;28;20055;-87
2023/07/08 05:39:43;;;;;;;4.28;2.58;;;;;;;;;;8430154;28;20406;-90
2023/07/08 05:43:48;;;;;;;4.22;2.80;;;;;;;;;;8429462;28;20044;-93
2023/07/08 05:47:50;;;;;;;4.95;2.88;;;;;;;;;;8419857;28;20157;-87
2023/07/08 05:51:53;;;;;;;3.55;2.60;;;;;;;;;;8428637;28;20445;-90
2023/07/08 05:55:56;;;;;;;3.00;2.50;;;;;;;;;;8426430;28;20036;-86
2023/07/08 06:00:01;;;;;;;3.80;2.92;;;;;;;;;;8429705;28;20067;-92
2023/07/08 06:04:04;;;;;;;3.85;2.50;;;;;;;;;;8430229;28;20094;-93
2023/07/08 06:08:08;;;;;;;5.38;2.80;;;;;;;;;;8428544;28;20036;-87
2023/07/08 06:12:11;;;;;;;5.82;2.83;;;;;;;;;;8417929;28;20060;-89
2023/07/08 06:16:16;;;;;;;5.78;2.58;;;;;;;;;;8424580;28;20543;-89
2023/07/08 06:20:19;;;;;;;3.53;2.70;;;;;;;;;;8429317;28;20535;-91
2023/07/08 06:24:21;;;;;;;5.78;2.60;;;;;;;;;;8433446;28;20055;-88
2023/07/08 06:28:25;;;;;;;4.43;2.50;;;;;;;;;;8438472;28;20051;-87
2023/07/08 06:32:29;;;;;;;5.25;3.40;;;;;;;;;;8431148;28;20633;-92
2023/07/08 06:36:32;;;;;;;2.58;2.08;;;;;;;;;;8417830;28;20076;-86
2023/07/08 06:40:36;;;;;;;6.70;2.17;;;;;;;;;;8433813;28;20063;-93
2023/07/08 06:44:39;;;;;;;2.85;2.10;;;;;;;;;;8417385;28;20079;-93
2023/07/08 06:48:43;;;;;;;2.42;2.00;;;;;;;;;;8428199;28;20052;-89
2023/07/08 06:52:46;;;;;;;4.53;2.30;;;;;;;;;;8429482;28;20744;-85
2023/07/08 06:56:49;;;;;;;3.00;2.15;;;;;;;;;;8428967;28;20048;-88
2023/07/08 07:00:52;;;;;;;2.80;2.05;;;;;;;;;;8427970;28;20484;-87
2023/07/08 07:04:56;;;;;;;6.65;2.33;;;;;;;;;;8427775;28;20036;-91
2023/07/08 07:08:59;;;;;;;5.18;2.17;;;;;;;;;;8429032;28;20035;-90
2023/07/08 07:13:02;;;;;;;2.53;1.80;;;;;;;;;;8420120;28;20411;-86
2023/07/08 07:17:06;;;;;;;2.47;1.65;;;;;;;;;;8428563;28;20448;-92
2023/07/08 07:21:10;;;;;;;2.42;1.88;;;;;;;;;;8428113;28;20040;-85
2023/07/08 07:25:13;;;;;;;1.98;1.58;;;;;;;;;;8427072;28;20407;-94
2023/07/08 07:29:17;;;;;;;2.25;1.63;;;;;;;;;;8427294;28;20082;-93
2023/07/08 07:33:20;;;;;;;3.15;2.00;;;;;;;;;;8427281;28;20558;-86
2023/07/08 07:37:24;;;;;;;3.20;1.80;;;;;;;;;;8426784;28;20407;-88
2023/07/08 07:41:27;;;;;;;2.22;1.60;;;;;;;;;;8426789;28;20051;-85
2023/07/08 07:45:30;;;;;;;4.00;1.60;;;;;;;;;;8426761;28;20051;-92
2023/07/08 07:49:33;;;;;;;3.33;2.10;;;;;;;;;;8418669;28;20187;-92
2023/07/08 07:53:38;;;;;;;3.60;1.75;;;;;;;;;;8428202;28;20051;-93
2023/07/08 07:57:45;;;;;;;1.92;1.50;;;;;;;;;;8427116;28;20060;-90
2023/07/08 08:01:48;;;;;;;3.05;1.55;;;;;;;;;;8427441;28;20245;-86
2023/07/08 08:05:52;;;;;;;2.05;1.60;;;;;;;;;;8427868;28;20459;-88
2023/07/08 08:09:57;;;;;;;2.15;1.60;;;;;;;;;;8421119;28;20048;-90
2023/07/08 08:14:03;;;;;;;1.90;1.60;;;;;;;;;;8441124;28;20131;-86
2023/07/08 08:18:06;;;;;;;3.67;1.85;;;;;;;;;;8441116;28;20067;-93
2023/07/08 08:22:09;;;;;;;3.90;1.83;;;;;;;;;;8442695;28;20051;-88
2023/07/08 08:26:14;;;;;;;3.47;1.80;;;;;;;;;;8415520;28;20043;-89
2023/07/08 08:30:17;;;;;;;3.13;2.00;;;;;;;;;;8425790;28;20046;-86
2023/07/08 08:34:20;;;;;;;3.85;1.88;;;;;;;;;;8442760;28;20063;-90
2023/07/08 08:38:23;;;;;;;1.95;1.60;;;;;;;;;;8432708;28;20543;-91
2023/07/08 08:42:30;;;;;;;3.50;1.92;;;;;;;;;;8430403;28;20040;-94
2023/07/08 08:46:39;;;;;;;4.03;1.80;;;;;;;;;;8433367;28;20047;-92
2023/07/08 08:50:48;;;;;;;2.63;1.80;;;;;;;;;;8433047;28;20072;-92
2023/07/08 08:54:52;;;;;;;3.15;1.83;;;;;;;;;;8432746;28;20136;-85
2023/07/08 08:59:01;;;;;;;4.13;2.15;;;;;;;;;;8432507;28;20248;-92
2023/07/08 09:03:09;;;;;;;3.33;1.98;;;;;;;;;;8433263;28;20054;-92
2023/07/08 09:07:18;;;;;;;2.80;1.70;;;;;;;;;;8432973;28;20044;-92
2023/07/08 09:11:28;;;;;;;3.78;2.00;;;;;;;;;;8432984;28;20215;-93
2023/07/08 09:15:33;;;;;;;3.38;1.85;;;;;;;;;;8420094;28;20123;-92
2023/07/08 09:19:43;;;;;;;5.60;1.85;;;;;;;;;;8432125;28;20113;-91
2023/07/08 09:23:48;;;;;;;;;;;;;;;;;;8432491;28;20048;-87
2023/07/08 09:27:51;;;;;;;2.72;1.98;;;;;;;;;;8432089;28;19920;-84
2023/07/08 09:31:56;;;;;;;4.18;1.92;;;;;;;;;;8432068;28;20126;-91
2023/07/08 09:35:59;;;;;;;2.85;1.80;;;;;;;;;;8431867;28;20064;-84
2023/07/08 09:40:05;;;;;;;4.03;2.10;;;;;;;;;;8431781;28;20055;-85
2023/07/08 09:44:16;;;;;;;20.55;3.10;;;;;;;;;;8432385;28;20121;-89
2023/07/08 09:48:23;;;;;;;3.30;2.05;;;;;;;;;;8429936;28;20093;-91
2023/07/08 09:52:26;;;;;;;3.13;1.98;;;;;;;;;;8420592;28;20088;-85
2023/07/08 09:56:29;;;;;;;3.28;1.80;;;;;;;;;;8430299;28;20134;-87
2023/07/08 10:00:39;;;;;;;3.85;1.98;;;;;;;;;;8423274;28;20040;-87
2023/07/08 10:04:44;;;;;;;3.22;1.90;;;;;;;;;;8427964;28;20123;-91
2023/07/08 10:08:48;;;;;;;4.78;2.08;;;;;;;;;;8429993;28;20047;-91
2023/07/08 10:12:57;;;;;;;2.20;1.83;;;;;;;;;;8428054;28;20060;-91
2023/07/08 10:17:00;;;;;;;3.63;1.90;;;;;;;;;;8433958;28;20494;-87
2023/07/08 10:21:11;;;;;;;5.68;2.30;;;;;;;;;;8428851;28;20115;-89
2023/07/08 10:25:27;;;;;;;3.33;2.20;;;;;;;;;;8415782;28;20052;-87
2023/07/08 10:29:39;;;;;;;3.63;2.20;;;;;;;;;;8429594;28;20464;-90
2023/07/08 10:34:14;;;;;;;2.72;1.92;;;;;;;;;;8428037;28;20257;-84
2023/07/08 10:38:42;;;;;;;2.60;1.90;;;;;;;;;;8423907;28;20690;-89
2023/07/08 10:43:01;;;;;;;3.22;2.08;;;;;;;;;;8426416;28;20092;-89
2023/07/08 10:47:12;;;;;;;2.58;1.95;;;;;;;;;;8413672;28;20058;-83
2023/07/08 10:51:26;;;;;;;4.55;2.15;;;;;;;;;;8427268;28;20502;-91
2023/07/08 10:55:39;;;;;;;3.38;2.00;;;;;;;;;;8428067;28;20128;-88
2023/07/08 10:59:52;;;;;;;2.88;2.03;;;;;;;;;;8429125;28;20131;-90
2023/07/08 11:04:39;;;;;;;3.65;2.15;;;;;;;;;;8428108;28;20052;-83
2023/07/08 11:08:47;;;;;;;3.17;2.08;;;;;;;;;;8391419;28;20066;-83
2023/07/08 11:12:57;;;;;;;4.53;2.20;;;;;;;;;;8428975;28;20048;-87
2023/07/08 11:17:04;;;;;;;;;;;;;;;;;;8429674;28;20044;-91
2023/07/08 11:21:11;;;;;;;3.85;2.20;;;;;;;;;;8415613;28;20066;-90
2023/07/08 11:25:20;;;;;;;5.15;2.20;;;;;;;;;;8429372;28;20131;-91
2023/07/08 11:29:33;;;;;;;3.75;2.20;;;;;;;;;;8416539;28;20135;-84
2023/07/08 11:33:36;;;;;;;3.88;2.10;;;;;;;;;;8429381;28;20052;-91
2023/07/08 11:37:40;;;;;;;3.63;2.35;;;;;;;;;;8428921;28;20127;-87
2023/07/08 11:41:42;;;;;;;2.25;1.98;;;;;;;;;;8428958;28;20467;-90
2023/07/08 11:45:49;;;;;;;6.13;2.40;;;;;;;;;;8429425;28;20044;-85
2023/07/08 11:49:53;;;;;;;2.97;2.13;;;;;;;;;;8421854;28;20085;-91
2023/07/08 11:54:02;;;;;;;4.20;2.20;;;;;;;;;;8435153;28;20120;-84
2023/07/08 11:58:08;;;;;;;4.07;2.10;;;;;;;;;;8434777;28;20052;-91
2023/07/08 12:02:15;;;;;;;3.22;2.13;;;;;;;;;;8434733;28;20066;-89
2023/07/08 12:06:43;;;;;;;3.53;2.47;;;;;;;;;;8421037;28;20040;-90
2023/07/08 12:10:50;;;;;;;6.45;2.60;;;;;;;;;;8431785;28;20108;-88
2023/07/08 12:15:01;;;;;;;3.33;2.10;;;;;;;;;;8427089;28;20126;-88
2023/07/08 12:19:07;;;;;;;3.58;2.30;;;;;;;;;;8429247;28;20056;-90
2023/07/08 12:23:13;;;;;;;3.97;2.10;;;;;;;;;;8434085;28;20089;-89
2023/07/08 12:27:16;;;;;;;3.72;2.22;;;;;;;;;;8434092;28;20067;-83
2023/07/08 12:31:20;;;;;;;4.25;2.25;;;;;;;;;;8434361;28;20056;-83
2023/07/08 12:35:28;;;;;;;5.70;2.08;;;;;;;;;;8433664;28;20116;-86
2023/07/08 12:39:35;;;;;;;4.05;2.50;;;;;;;;;;8434103;28;20088;-90
2023/07/08 12:43:38;;;;;;;5.00;2.42;;;;;;;;;;8433840;28;20538;-90
2023/07/08 12:47:40;;;;;;;4.65;2.20;;;;;;;;;;8433755;28;20044;-90
2023/07/08 12:51:45;;;;;;;3.40;2.30;;;;;;;;;;8433160;28;20112;-88
2023/07/08 12:55:53;;;;;;;3.95;2.05;;;;;;;;;;8433382;28;20119;-90
2023/07/08 12:59:56;;;;;;;4.82;2.55;;;;;;;;;;8431177;28;20063;-89
2023/07/08 13:04:02;;;;;;;6.78;2.45;;;;;;;;;;8432736;28;20040;-89
2023/07/08 13:08:08;;;;;;;3.10;2.15;;;;;;;;;;8419146;28;20119;-91
2023/07/08 13:12:16;;;;;;;4.60;2.10;;;;;;;;;;8431160;28;20040;-90
2023/07/08 13:16:26;;;;;;;3.88;2.50;;;;;;;;;;8432425;28;20085;-87
2023/07/08 13:20:30;;;;;;;3.45;2.20;;;;;;;;;;8418715;28;20160;-88
2023/07/08 13:24:34;;;;;;;3.22;2.10;;;;;;;;;;8432026;28;20043;-88
2023/07/08 13:28:39;;;;;;;3.83;2.22;;;;;;;;;;8431867;28;20459;-89
2023/07/08 13:32:42;;;;;;;7.25;2.30;;;;;;;;;;8431803;28;20072;-83
2023/07/08 13:36:46;;;;;;;7.13;2.30;;;;;;;;;;8431667;28;20052;-89
2023/07/08 13:40:58;;;;;;;5.20;2.33;;;;;;;;;;8431557;28;20511;-88
2023/07/08 13:45:01;;;;;;;5.63;2.45;;;;;;;;;;8431711;28;20048;-87
2023/07/08 13:49:12;;;;;;;3.70;2.42;;;;;;;;;;8431583;28;20140;-87
2023/07/08 13:53:25;;;;;;;3.70;2.53;;;;;;;;;;8431504;28;20570;-85
2023/07/08 13:57:34;;;;;;;5.03;2.63;;;;;;;;;;8431230;28;20135;-91
2023/07/08 14:01:40;;;;;;;7.10;2.65;;;;;;;;;;8430932;28;20048;-91
2023/07/08 14:05:44;;;;;;;6.10;2.50;;;;;;;;;;8431446;28;20475;-85
2023/07/08 14:09:47;;;;;;;3.40;2.63;;;;;;;;;;8424168;28;20076;-84
2023/07/08 14:13:51;;;;;;;5.28;2.85;;;;;;;;;;8408240;28;20052;-85
2023/07/08 14:17:54;;;;;;;5.55;2.60;;;;;;;;;;8430245;28;20046;-90
2023/07/08 14:21:59;;;;;;;6.80;2.63;;;;;;;;;;8430187;28;20048;-87
2023/07/08 14:26:02;;;;;;;6.15;2.60;;;;;;;;;;8430110;28;20093;-88
2023/07/08 14:30:10;;;;;;;4.10;2.20;;;;;;;;;;8430012;28;20127;-90
2023/07/08 14:34:17;;;;;;;5.35;2.70;;;;;;;;;;8416803;28;20395;-84
2023/07/08 14:38:20;;;;;;;3.35;2.30;;;;;;;;;;8429894;28;20127;-90
2023/07/08 14:42:23;;;;;;;4.82;2.63;;;;;;;;;;8430164;28;20468;-89
2023/07/08 14:46:27;;;;;;;4.47;2.50;;;;;;;;;;8429608;28;20384;-89
2023/07/08 14:50:30;;;;;;;4.85;2.60;;;;;;;;;;8429550;28;20125;-85
2023/07/08 14:54:33;;;;;;;4.45;2.70;;;;;;;;;;8429479;28;20048;-90
2023/07/08 14:58:35;;;;;;;5.65;2.60;;;;;;;;;;8429430;28;20131;-90
2023/07/08 15:02:42;;;;;;;3.47;2.55;;;;;;;;;;8429269;28;20123;-84
2023/07/08 15:06:45;;;;;;;6.75;2.50;;;;;;;;;;8429226;28;20070;-89
2023/07/08 15:10:51;;;;;;;6.03;2.80;;;;;;;;;;8429006;28;20127;-87
2023/07/08 15:14:54;;;;;;;6.15;2.50;;;;;;;;;;8429062;28;20048;-89
2023/07/08 15:18:59;;;;;;;3.60;2.50;;;;;;;;;;8428806;28;20452;-89
2023/07/08 15:23:02;;;;;;;5.30;2.30;;;;;;;;;;8433985;28;20433;-89
2023/07/08 15:27:06;;;;;;;4.60;2.70;;;;;;;;;;8435856;28;20143;-89
2023/07/08 15:31:11;;;;;;;3.58;2.40;;;;;;;;;;8436278;28;20384;-87
2023/07/08 15:35:18;;;;;;;5.13;2.45;;;;;;;;;;8436080;28;20144;-89
2023/07/08 15:39:21;;;;;;;3.97;2.60;;;;;;;;;;8435793;28;20123;-88
2023/07/08 15:43:23;;;;;;;3.92;2.78;;;;;;;;;;8435093;28;20462;-89
2023/07/08 15:47:26;;;;;;;4.63;2.60;;;;;;;;;;8435754;28;20475;-89
2023/07/08 15:51:30;;;;;;;9.40;3.08;;;;;;;;;;8435013;28;20048;-88
2023/07/08 15:55:37;;;;;;;7.28;2.72;;;;;;;;;;8435194;28;20044;-89
2023/07/08 15:59:41;;;;;;;4.97;2.80;;;;;;;;;;8434887;28;20476;-88
2023/07/08 16:03:44;;;;;;;6.00;2.63;;;;;;;;;;8425160;28;20123;-88
2023/07/08 16:07:50;;;;;;;4.57;2.60;;;;;;;;;;8431232;28;20523;-88
2023/07/08 16:11:53;;;;;;;4.35;2.67;;;;;;;;;;8434302;28;20109;-88
2023/07/08 16:15:56;;;;;;;3.25;2.40;;;;;;;;;;8434273;28;20115;-89
2023/07/08 16:19:59;;;;;;;5.35;2.40;;;;;;;;;;8434185;28;20055;-88
2023/07/08 16:24:04;;;;;;;3.65;2.65;;;;;;;;;;8434043;28;20122;-85
2023/07/08 16:28:07;;;;;;;6.05;3.10;;;;;;;;;;8423851;28;20052;-89
2023/07/08 16:32:14;;;;;;;4.45;2.63;;;;;;;;;;8430247;28;20448;-86
2023/07/08 16:36:19;;;;;;;4.55;2.65;;;;;;;;;;8433803;28;20040;-89
2023/07/08 16:40:26;;;;;;;6.05;2.70;;;;;;;;;;8433484;28;20123;-88
2023/07/08 16:44:29;;;;;;;4.25;2.55;;;;;;;;;;8434695;28;20448;-88
2023/07/08 16:48:32;;;;;;;7.57;2.83;;;;;;;;;;8431228;28;20115;-90
2023/07/08 16:52:35;;;;;;;4.93;2.72;;;;;;;;;;8431261;28;20617;-89
2023/07/08 16:56:39;;;;;;;7.30;2.90;;;;;;;;;;8430173;28;20044;-89
2023/07/08 17:00:44;;;;;;;4.30;2.83;;;;;;;;;;8431658;28;20480;-87
2023/07/08 17:04:49;;;;;;;4.88;3.05;;;;;;;;;;8431413;28;20127;-89
2023/07/08 17:08:52;;;;;;;7.88;3.22;;;;;;;;;;8432387;28;20139;-89
2023/07/08 17:12:56;;;;;;;5.18;3.42;;;;;;;;;;8432347;28;20056;-87
2023/07/08 17:16:59;;;;;;;8.07;4.82;;;;;;;;;;8418809;28;20087;-89
2023/07/08 17:21:02;;;;;;;17.30;7.18;;;;;;;;;;8432055;28;20126;-85
2023/07/08 17:25:10;;;;;;;8.77;4.40;;;;;;;;;;8432317;28;20051;-88
2023/07/08 17:29:15;;;;;;;9.32;4.80;;;;;;;;;;8427264;28;20082;-89
2023/07/08 17:33:20;;;;;;;7.53;4.07;;;;;;;;;;8424169;28;20051;-87
2023/07/08 17:37:23;;;;;;;6.00;3.72;;;;;;;;;;8418182;28;20039;-90
2023/07/08 17:41:27;;;;;;;6.10;3.47;;;;;;;;;;8431736;28;20476;-87
2023/07/08 17:45:35;;;;;;;6.95;3.20;;;;;;;;;;8430046;28;20043;-88
2023/07/08 17:49:39;;;;;;;5.70;3.10;;;;;;;;;;8429793;28;20273;-86
2023/07/08 17:53:42;;;;;;;5.80;3.20;;;;;;;;;;8416371;28;20121;-90
2023/07/08 17:57:48;;;;;;;7.38;3.88;;;;;;;;;;8416759;28;20044;-88
2023/07/08 18:01:53;;;;;;;10.93;5.20;;;;;;;;;;8418116;28;20062;-91
2023/07/08 18:05:56;;;;;;;14.63;7.45;;;;;;;;;;8431535;28;20040;-91
2023/07/08 18:09:59;;;;;;;20.58;10.55;;;;;;;;;;8431922;28;20468;-89
2023/07/08 18:14:02;;;;;;;22.63;11.52;;;;;;;;;;8417737;28;20440;-87
2023/07/08 18:18:06;;;;;;;17.73;9.57;;;;;;;;;;8431602;28;20067;-89
2023/07/08 18:22:11;;;;;;;16.42;7.95;;;;;;;;;;8431451;28;20055;-82
2023/07/08 18:26:18;;;;;;;12.88;7.03;;;;;;;;;;8431057;28;20047;-88
2023/07/08 18:30:22;;;;;;;10.85;5.80;;;;;;;;;;8431118;28;20044;-89
2023/07/08 18:34:25;;;;;;;7.50;5.25;;;;;;;;;;8416604;28;20113;-92
2023/07/08 18:38:28;;;;;;;7.35;4.68;;;;;;;;;;8430867;28;20048;-85
2023/07/08 18:42:31;;;;;;;10.68;5.72;;;;;;;;;;8430784;28;20150;-91
2023/07/08 18:46:34;;;;;;;11.00;5.70;;;;;;;;;;8431171;28;20551;-92
2023/07/08 18:50:38;;;;;;;9.00;6.32;;;;;;;;;;8430678;28;20047;-92
2023/07/08 18:54:41;;;;;;;8.35;6.13;;;;;;;;;;8430383;28;20475;-91
2023/07/08 18:58:45;;;;;;;11.55;7.35;;;;;;;;;;8429825;28;20047;-92
2023/07/08 19:02:50;;;;;;;25.60;12.57;;;;;;;;;;8430296;28;20155;-91
2023/07/08 19:06:57;;;;;;;19.45;11.07;;;;;;;;;;8430447;28;20055;-92
2023/07/08 19:11:00;;;;;;;14.98;8.50;;;;;;;;;;8430291;28;20070;-91
2023/07/08 19:15:03;;;;;;;13.48;7.55;;;;;;;;;;8430155;28;20507;-84
2023/07/08 19:19:06;;;;;;;17.45;10.27;;;;;;;;;;8430200;28;20044;-91
2023/07/08 19:23:14;;;;;;;14.13;9.80;;;;;;;;;;8430676;28;20048;-83
2023/07/08 19:27:19;;;;;;;14.27;8.77;;;;;;;;;;8430104;28;20052;-88
2023/07/08 19:31:24;;;;;;;21.08;13.65;;;;;;;;;;8416458;28;20048;-92
2023/07/08 19:35:27;;;;;;;16.45;8.82;;;;;;;;;;8430273;28;20044;-89
2023/07/08 19:39:32;;;;;;;11.43;7.45;;;;;;;;;;8429945;28;20133;-93
2023/07/08 19:43:34;;;;;;;16.58;7.80;;;;;;;;;;8429902;28;20137;-91
2023/07/08 19:47:37;;;;;;;11.15;7.22;;;;;;;;;;8419804;28;20044;-92
2023/07/08 19:51:40;;;;;;;13.35;8.35;;;;;;;;;;8426917;28;20127;-92
2023/07/08 19:55:44;;;;;;;12.10;7.00;;;;;;;;;;8429973;28;20055;-91
2023/07/08 19:59:47;;;;;;;10.50;7.50;;;;;;;;;;8430414;28;20495;-93
2023/07/08 20:03:51;;;;;;;10.93;8.73;;;;;;;;;;8429890;28;20131;-92
2023/07/08 20:07:58;;;;;;;10.25;7.30;;;;;;;;;;8432718;28;20468;-94
2023/07/08 20:12:03;;;;;;;10.93;7.60;;;;;;;;;;8435771;28;20189;-93
2023/07/08 20:16:14;;;;;;;13.77;8.75;;;;;;;;;;8436171;28;20085;-93
2023/07/08 20:20:21;;;;;;;9.88;7.93;;;;;;;;;;8435893;28;20044;-93
2023/07/08 20:24:24;;;;;;;11.43;8.55;;;;;;;;;;8435147;28;20123;-94
2023/07/08 20:28:31;;;;;;;13.75;8.75;;;;;;;;;;8435530;28;20131;-93
2023/07/08 20:32:34;;;;;;;111.90;26.98;;;;;;;;;;8435341;28;20079;-93
2023/07/08 20:36:37;;;;;;;21.40;10.60;;;;;;;;;;8435427;28;20067;-88
2023/07/08 20:40:41;;;;;;;28.50;12.77;;;;;;;;;;8428430;28;20404;-83
2023/07/08 20:44:45;;;;;;;19.08;11.05;;;;;;;;;;8428543;28;20406;-93
2023/07/08 20:48:48;;;;;;;15.27;9.32;;;;;;;;;;8421647;28;20048;-92
2023/07/08 20:52:52;;;;;;;13.05;10.05;;;;;;;;;;8434663;28;20101;-88
2023/07/08 20:56:55;;;;;;;13.70;8.55;;;;;;;;;;8414486;28;20142;-94
2023/07/08 21:00:59;;;;;;;65.57;23.50;;;;;;;;;;8428204;28;20381;-90
2023/07/08 21:05:02;;;;;;;25.15;13.98;;;;;;;;;;8433385;28;20036;-89
2023/07/08 21:09:05;;;;;;;14.77;9.52;;;;;;;;;;8409253;28;20048;-90
2023/07/08 21:13:09;;;;;;;13.82;9.65;;;;;;;;;;8432036;28;20491;-89
2023/07/08 21:17:17;;;;;;;14.77;10.00;;;;;;;;;;8427948;28;20106;-82
2023/07/08 21:21:21;;;;;;;99.65;48.95;;;;;;;;;;8420094;28;20051;-83
2023/07/08 21:25:26;;;;;;;26.58;16.95;;;;;;;;;;8431908;28;20395;-89
2023/07/08 21:29:29;;;;;;;13.02;9.82;;;;;;;;;;8432136;28;20044;-85
2023/07/08 21:33:33;;;;;;;12.60;8.95;;;;;;;;;;8430498;28;20048;-88
2023/07/08 21:37:36;;;;;;;13.07;8.90;;;;;;;;;;8431132;28;20036;-85
2023/07/08 21:41:39;;;;;;;43.92;16.52;;;;;;;;;;8431491;28;20047;-84
2023/07/08 21:45:44;;;;;;;16.05;9.88;;;;;;;;;;8429377;28;20044;-88
2023/07/08 21:49:50;;;;;;;16.30;11.00;;;;;;;;;;8431544;28;20494;-89
2023/07/08 21:53:54;;;;;;;16.77;11.52;;;;;;;;;;8431148;28;20044;-89
2023/07/08 21:57:57;;;;;;;13.00;10.50;;;;;;;;;;8431059;28;20533;-89
2023/07/08 22:02:00;;;;;;;12.43;10.40;;;;;;;;;;8430432;28;20048;-85
2023/07/08 22:06:04;;;;;;;12.93;10.75;;;;;;;;;;8430676;28;20181;-87
2023/07/08 22:10:14;;;;;;;12.70;10.13;;;;;;;;;;8430725;28;20476;-85
2023/07/08 22:14:16;;;;;;;11.93;10.38;;;;;;;;;;8430424;28;20051;-88
2023/07/08 22:18:21;;;;;;;12.80;10.32;;;;;;;;;;8435134;28;20044;-88
2023/07/08 22:22:25;;;;;;;13.02;9.55;;;;;;;;;;8436578;28;20071;-89
2023/07/08 22:26:29;;;;;;;15.35;11.40;;;;;;;;;;8430302;28;20480;-88
2023/07/08 22:30:32;;;;;;;13.70;10.10;;;;;;;;;;8428847;28;20044;-88
2023/07/08 22:34:35;;;;;;;12.80;10.10;;;;;;;;;;8424472;28;20040;-86
2023/07/08 22:38:39;;;;;;;14.27;10.15;;;;;;;;;;8429554;28;20123;-89
2023/07/08 22:42:44;;;;;;;15.52;10.20;;;;;;;;;;8429301;28;20123;-89
2023/07/08 22:46:47;;;;;;;13.13;10.00;;;;;;;;;;8416037;28;20040;-83
2023/07/08 22:50:50;;;;;;;14.40;10.68;;;;;;;;;;8415349;28;20047;-89
2023/07/08 22:54:55;;;;;;;12.95;10.23;;;;;;;;;;8416313;28;20043;-84
2023/07/08 22:58:58;;;;;;;13.13;10.18;;;;;;;;;;8429486;28;20463;-89
2023/07/08 23:03:00;;;;;;;12.73;10.60;;;;;;;;;;8415985;28;20059;-87
2023/07/08 23:07:04;;;;;;;13.48;10.27;;;;;;;;;;8428771;28;20048;-87
2023/07/08 23:11:14;;;;;;;15.88;11.18;;;;;;;;;;8415832;28;20044;-89
2023/07/08 23:15:17;;;;;;;15.32;11.50;;;;;;;;;;8420382;28;20435;-89
2023/07/08 23:19:20;;;;;;;12.68;10.77;;;;;;;;;;8427458;28;20046;-85
2023/07/08 23:23:23;;;;;;;16.05;10.40;;;;;;;;;;8417462;28;20049;-90
2023/07/08 23:27:27;;;;;;;13.35;10.07;;;;;;;;;;8427499;28;20086;-88
2023/07/08 23:31:34;;;;;;;14.30;10.20;;;;;;;;;;8418773;28;20047;-88
2023/07/08 23:35:36;;;;;;;13.65;11.07;;;;;;;;;;8427963;28;20381;-86
2023/07/08 23:39:39;;;;;;;15.57;10.75;;;;;;;;;;8428787;28;20461;-90
2023/07/08 23:43:44;;;;;;;15.00;11.55;;;;;;;;;;8432875;28;20051;-90
2023/07/08 23:47:47;;;;;;;14.35;11.90;;;;;;;;;;8435318;28;20071;-83
2023/07/08 23:51:51;;;;;;;14.65;11.73;;;;;;;;;;8434952;28;20553;-87
2023/07/08 23:55:53;;;;;;;17.83;10.63;;;;;;;;;;8435015;28;20063;-84
2023/07/08 23:59:58;;;;;;;15.95;10.77;;;;;;;;;;8420912;28;20044;-88
